Time;durP1;ratioP1;P1;durP2;ratioP2;P2;SDS_P1;SDS_P2;PMS_P1;PMS_P2;Temp;Humidity;BMP_temperature;BMP_pressure;BME280_temperature;BME280_humidity;BME280_pressure;Samples;Min_cycle;Max_cycle;Signal;HPM_P1;HPM_P2
2021/08/13 00:02:11;;;;;;;7.07;5.80;;;;;;;;;;5112374;28;20197;-77
2021/08/13 00:04:40;;;;;;;8.83;6.60;;;;;;;;;;5115473;28;20202;-77
2021/08/13 00:07:07;;;;;;;8.90;6.23;;;;;;;;;;5116161;28;20284;-77
2021/08/13 00:09:34;;;;;;;9.53;6.80;;;;;;;;;;5116373;28;20304;-76
2021/08/13 00:12:02;;;;;;;7.10;6.40;;;;;;;;;;5116670;28;20288;-76
2021/08/13 00:14:29;;;;;;;8.73;6.97;;;;;;;;;;5116210;28;20204;-76
2021/08/13 00:16:56;;;;;;;11.10;7.40;;;;;;;;;;5116370;28;20316;-76
2021/08/13 00:19:23;;;;;;;12.07;7.50;;;;;;;;;;5116387;28;20232;-76
2021/08/13 00:21:52;;;;;;;9.47;7.20;;;;;;;;;;5116152;28;20280;-76
2021/08/13 00:24:19;;;;;;;10.10;7.13;;;;;;;;;;5116105;28;20250;-77
2021/08/13 00:26:46;;;;;;;10.17;7.50;;;;;;;;;;5116199;28;20280;-77
2021/08/13 00:29:13;;;;;;;10.07;7.53;;;;;;;;;;5116089;28;20288;-77
2021/08/13 00:31:40;;;;;;;10.10;7.73;;;;;;;;;;5115866;28;20288;-77
2021/08/13 00:34:07;;;;;;;9.73;8.03;;;;;;;;;;5115884;28;20274;-77
2021/08/13 00:36:35;;;;;;;11.23;8.03;;;;;;;;;;5114942;28;20313;-77
2021/08/13 00:39:03;;;;;;;10.77;7.87;;;;;;;;;;5115779;28;20197;-77
2021/08/13 00:41:31;;;;;;;12.67;8.13;;;;;;;;;;5115419;28;20629;-76
2021/08/13 00:43:58;;;;;;;10.53;7.83;;;;;;;;;;5115039;28;20284;-77
2021/08/13 00:46:25;;;;;;;10.87;8.27;;;;;;;;;;5115358;28;20190;-77
2021/08/13 00:48:52;;;;;;;10.90;8.10;;;;;;;;;;5115152;28;20208;-77
2021/08/13 00:51:20;;;;;;;9.90;8.20;;;;;;;;;;5115267;28;20293;-77
2021/08/13 00:53:47;;;;;;;11.53;8.57;;;;;;;;;;5115086;28;20325;-77
2021/08/13 00:56:16;;;;;;;11.03;9.03;;;;;;;;;;5115094;28;20314;-77
2021/08/13 00:58:43;;;;;;;10.23;8.07;;;;;;;;;;5114826;28;20279;-77
2021/08/13 01:01:11;;;;;;;11.40;8.00;;;;;;;;;;5115443;28;20293;-77
2021/08/13 01:03:39;;;;;;;10.00;8.50;;;;;;;;;;5114978;27;20585;-77
2021/08/13 01:06:07;;;;;;;12.67;9.20;;;;;;;;;;5115097;27;20194;-77
2021/08/13 01:08:34;;;;;;;14.03;9.17;;;;;;;;;;5114810;28;20308;-77
2021/08/13 01:11:02;;;;;;;11.47;8.67;;;;;;;;;;5115025;28;20210;-77
2021/08/13 01:13:34;;;;;;;11.90;8.10;;;;;;;;;;5114928;28;20297;-78
2021/08/13 01:16:03;;;;;;;13.97;8.80;;;;;;;;;;5113879;28;20293;-77
2021/08/13 01:18:32;;;;;;;11.40;8.27;;;;;;;;;;5114667;28;20602;-77
2021/08/13 01:21:13;;;;;;;11.20;8.40;;;;;;;;;;5114719;28;20199;-77
2021/08/13 01:23:41;;;;;;;10.90;8.30;;;;;;;;;;5114400;28;20293;-77
2021/08/13 01:26:09;;;;;;;10.53;8.17;;;;;;;;;;5114513;28;20285;-76
2021/08/13 01:28:39;;;;;;;10.47;8.50;;;;;;;;;;5114431;28;20288;-77
2021/08/13 01:31:10;;;;;;;10.70;8.10;;;;;;;;;;5114609;28;20665;-77
2021/08/13 01:33:41;;;;;;;12.23;8.50;;;;;;;;;;5114159;28;20331;-77
2021/08/13 01:36:08;;;;;;;10.90;8.80;;;;;;;;;;5114309;28;20221;-77
2021/08/13 01:38:36;;;;;;;13.57;8.87;;;;;;;;;;5114391;28;20284;-77
2021/08/13 01:41:05;;;;;;;11.63;8.50;;;;;;;;;;5114288;28;20205;-78
2021/08/13 01:43:33;;;;;;;11.43;8.50;;;;;;;;;;5114368;28;20225;-77
2021/08/13 01:46:01;;;;;;;12.00;8.70;;;;;;;;;;5114458;28;20202;-76
2021/08/13 01:48:29;;;;;;;13.47;8.23;;;;;;;;;;5113890;28;20285;-77
2021/08/13 01:50:58;;;;;;;12.27;8.87;;;;;;;;;;5114491;28;20826;-77
2021/08/13 01:53:26;;;;;;;10.27;8.37;;;;;;;;;;5113992;28;20324;-77
2021/08/13 01:55:53;;;;;;;11.60;8.27;;;;;;;;;;5114103;28;20290;-77
2021/08/13 01:58:21;;;;;;;11.23;8.50;;;;;;;;;;5114139;28;20320;-77
2021/08/13 02:00:51;;;;;;;11.03;8.17;;;;;;;;;;5113987;28;20642;-77
2021/08/13 02:03:19;;;;;;;11.87;8.60;;;;;;;;;;5113584;28;20288;-77
2021/08/13 02:05:49;;;;;;;10.93;8.33;;;;;;;;;;5114156;28;20548;-77
2021/08/13 02:08:18;;;;;;;12.70;8.20;;;;;;;;;;5114265;28;20224;-77
2021/08/13 02:10:48;;;;;;;11.90;8.17;;;;;;;;;;5113875;28;20289;-77
2021/08/13 02:13:16;;;;;;;11.77;8.43;;;;;;;;;;5113764;28;20253;-77
2021/08/13 02:15:45;;;;;;;10.63;8.23;;;;;;;;;;5113777;28;20329;-78
2021/08/13 02:18:13;;;;;;;10.30;7.87;;;;;;;;;;5113982;28;20317;-77
2021/08/13 02:20:41;;;;;;;12.57;8.53;;;;;;;;;;5113669;28;20292;-77
2021/08/13 02:23:08;;;;;;;12.33;7.70;;;;;;;;;;5113641;28;20627;-78
2021/08/13 02:25:37;;;;;;;10.00;8.17;;;;;;;;;;5113616;28;20288;-78
2021/08/13 02:28:04;;;;;;;11.50;8.53;;;;;;;;;;5113135;28;20194;-78
2021/08/13 02:30:32;;;;;;;8.77;7.30;;;;;;;;;;5113253;28;20788;-78
2021/08/13 02:32:59;;;;;;;9.87;7.70;;;;;;;;;;5113485;28;20736;-77
2021/08/13 02:35:26;;;;;;;8.47;7.20;;;;;;;;;;5112703;28;20244;-78
2021/08/13 02:37:56;;;;;;;8.90;6.97;;;;;;;;;;5113286;27;20300;-78
2021/08/13 02:40:27;;;;;;;9.37;6.80;;;;;;;;;;5113270;28;20288;-78
2021/08/13 02:42:57;;;;;;;9.43;6.70;;;;;;;;;;5113207;28;20213;-77
2021/08/13 02:45:25;;;;;;;8.03;6.23;;;;;;;;;;5113043;28;20288;-78
2021/08/13 02:47:55;;;;;;;7.53;6.47;;;;;;;;;;5113484;28;20275;-78
2021/08/13 02:50:23;;;;;;;7.67;6.40;;;;;;;;;;5124104;27;20208;-78
2021/08/13 02:52:53;;;;;;;6.87;6.03;;;;;;;;;;5133814;27;20284;-79
2021/08/13 02:55:22;;;;;;;7.97;6.60;;;;;;;;;;5133391;27;20319;-78
2021/08/13 02:57:52;;;;;;;8.00;6.67;;;;;;;;;;5133616;27;20311;-78
2021/08/13 03:00:21;;;;;;;9.53;6.10;;;;;;;;;;5133601;27;20555;-78
2021/08/13 03:02:48;;;;;;;8.97;6.20;;;;;;;;;;5133435;27;20363;-78
2021/08/13 03:05:16;;;;;;;8.00;6.30;;;;;;;;;;5132477;27;20201;-77
2021/08/13 03:07:44;;;;;;;9.10;6.30;;;;;;;;;;5133265;27;20288;-78
2021/08/13 03:10:11;;;;;;;8.53;5.97;;;;;;;;;;5133561;27;20520;-78
2021/08/13 03:12:39;;;;;;;8.13;6.13;;;;;;;;;;5133851;27;20193;-78
2021/08/13 03:15:07;;;;;;;8.27;6.07;;;;;;;;;;5133335;27;20283;-78
2021/08/13 03:17:36;;;;;;;8.53;6.07;;;;;;;;;;5133440;27;20256;-78
2021/08/13 03:20:03;;;;;;;10.40;6.20;;;;;;;;;;5133228;27;20756;-78
2021/08/13 03:22:31;;;;;;;10.00;7.03;;;;;;;;;;5133303;27;20228;-79
2021/08/13 03:24:59;;;;;;;8.27;6.47;;;;;;;;;;5133499;27;20197;-78
2021/08/13 03:27:26;;;;;;;10.60;6.20;;;;;;;;;;5133254;27;20195;-78
2021/08/13 03:29:53;;;;;;;9.80;6.60;;;;;;;;;;5133219;27;20208;-78
2021/08/13 03:32:21;;;;;;;9.53;6.27;;;;;;;;;;5133539;27;20228;-78
2021/08/13 03:34:49;;;;;;;9.10;6.17;;;;;;;;;;5133208;27;20284;-78
2021/08/13 03:37:16;;;;;;;9.43;5.83;;;;;;;;;;5133309;27;20316;-78
2021/08/13 03:39:44;;;;;;;8.50;6.13;;;;;;;;;;5136238;27;20292;-77
2021/08/13 03:42:11;;;;;;;7.53;6.13;;;;;;;;;;5137181;27;20253;-78
2021/08/13 03:44:38;;;;;;;8.43;5.63;;;;;;;;;;5137255;27;20288;-78
2021/08/13 03:47:06;;;;;;;7.47;5.70;;;;;;;;;;5137640;27;20211;-79
2021/08/13 03:49:33;;;;;;;7.27;5.47;;;;;;;;;;5137191;27;20284;-78
2021/08/13 03:52:01;;;;;;;9.47;5.40;;;;;;;;;;5137189;27;20301;-78
2021/08/13 03:54:28;;;;;;;8.33;5.27;;;;;;;;;;5136826;27;20810;-78
2021/08/13 03:56:55;;;;;;;7.77;5.87;;;;;;;;;;5136838;27;20287;-78
2021/08/13 03:59:23;;;;;;;9.57;5.80;;;;;;;;;;5136697;27;20199;-78
2021/08/13 04:01:50;;;;;;;6.30;5.00;;;;;;;;;;5137055;27;20390;-77
2021/08/13 04:04:17;;;;;;;8.23;5.43;;;;;;;;;;5136754;27;20200;-78
2021/08/13 04:06:44;;;;;;;7.37;5.47;;;;;;;;;;5136911;27;20687;-78
2021/08/13 04:09:13;;;;;;;6.90;5.07;;;;;;;;;;5136780;27;20585;-78
2021/08/13 04:11:40;;;;;;;7.53;5.03;;;;;;;;;;5136772;27;20284;-78
2021/08/13 04:14:07;;;;;;;6.93;5.20;;;;;;;;;;5136501;27;20300;-78
2021/08/13 04:16:34;;;;;;;6.63;5.73;;;;;;;;;;5136629;27;20236;-78
2021/08/13 04:19:02;;;;;;;8.63;5.03;;;;;;;;;;5136770;27;20225;-79
2021/08/13 04:21:29;;;;;;;6.50;5.60;;;;;;;;;;5136634;27;20747;-77
2021/08/13 04:23:56;;;;;;;9.67;5.57;;;;;;;;;;5136440;27;20744;-78
2021/08/13 04:26:24;;;;;;;7.43;5.40;;;;;;;;;;5136121;27;20291;-78
2021/08/13 04:28:52;;;;;;;8.80;5.80;;;;;;;;;;5136309;27;20224;-78
2021/08/13 04:31:19;;;;;;;7.30;5.33;;;;;;;;;;5136463;27;20630;-78
2021/08/13 04:33:46;;;;;;;9.07;5.70;;;;;;;;;;5136232;27;20199;-78
2021/08/13 04:36:13;;;;;;;8.63;5.87;;;;;;;;;;5136152;27;20296;-77
2021/08/13 04:38:40;;;;;;;8.13;5.97;;;;;;;;;;5136101;27;20315;-78
2021/08/13 04:41:07;;;;;;;6.93;5.67;;;;;;;;;;5135986;27;20296;-78
2021/08/13 04:43:36;;;;;;;8.90;6.00;;;;;;;;;;5136236;27;20291;-78
2021/08/13 04:46:03;;;;;;;8.13;5.50;;;;;;;;;;5136086;27;20633;-78
2021/08/13 04:48:30;;;;;;;8.40;5.60;;;;;;;;;;5136240;27;20637;-78
2021/08/13 04:50:58;;;;;;;9.00;5.33;;;;;;;;;;5135793;27;20292;-78
2021/08/13 04:53:25;;;;;;;7.93;5.73;;;;;;;;;;5135761;27;20236;-78
2021/08/13 04:55:52;;;;;;;9.23;5.70;;;;;;;;;;5135533;27;20287;-78
2021/08/13 04:58:20;;;;;;;9.10;5.93;;;;;;;;;;5135897;27;20282;-78
2021/08/13 05:00:49;;;;;;;7.43;5.70;;;;;;;;;;5136143;27;20284;-78
2021/08/13 05:03:16;;;;;;;7.67;5.23;;;;;;;;;;5135895;27;20296;-78
2021/08/13 05:05:43;;;;;;;8.67;5.43;;;;;;;;;;5135819;27;20927;-78
2021/08/13 05:08:11;;;;;;;10.63;5.63;;;;;;;;;;5135485;27;20213;-78
2021/08/13 05:10:39;;;;;;;8.30;5.67;;;;;;;;;;5135252;27;20646;-78
2021/08/13 05:13:06;;;;;;;9.17;5.63;;;;;;;;;;5135453;27;20200;-78
2021/08/13 05:15:33;;;;;;;10.80;5.73;;;;;;;;;;5135360;27;20676;-78
2021/08/13 05:18:02;;;;;;;7.13;5.50;;;;;;;;;;5135299;27;20307;-78
2021/08/13 05:20:29;;;;;;;6.10;5.00;;;;;;;;;;5135517;27;20236;-78
2021/08/13 05:22:56;;;;;;;6.43;5.00;;;;;;;;;;5135688;27;20207;-77
2021/08/13 05:25:23;;;;;;;8.50;5.57;;;;;;;;;;5135137;27;20281;-78
2021/08/13 05:27:50;;;;;;;8.07;5.80;;;;;;;;;;5135406;27;20722;-78
2021/08/13 05:30:18;;;;;;;8.30;5.63;;;;;;;;;;5135484;27;20228;-78
2021/08/13 05:32:46;;;;;;;6.80;5.37;;;;;;;;;;5135299;27;20280;-77
2021/08/13 05:35:15;;;;;;;8.00;5.20;;;;;;;;;;5135338;27;20301;-78
2021/08/13 05:37:42;;;;;;;6.60;5.10;;;;;;;;;;5135064;27;20337;-78
2021/08/13 05:40:10;;;;;;;6.37;5.40;;;;;;;;;;5125212;27;20297;-78
2021/08/13 05:42:37;;;;;;;6.97;5.47;;;;;;;;;;5114464;28;20535;-79
2021/08/13 05:45:05;;;;;;;7.07;5.60;;;;;;;;;;5114587;28;20293;-78
2021/08/13 05:47:37;;;;;;;7.07;5.53;;;;;;;;;;5114906;28;20292;-78
2021/08/13 05:50:05;;;;;;;6.60;5.50;;;;;;;;;;5114405;28;20233;-78
2021/08/13 05:52:33;;;;;;;8.73;5.33;;;;;;;;;;5113158;28;20595;-78
2021/08/13 05:55:01;;;;;;;8.47;5.57;;;;;;;;;;5113710;28;20320;-78
2021/08/13 05:57:28;;;;;;;8.30;5.37;;;;;;;;;;5114134;28;20205;-78
2021/08/13 05:59:55;;;;;;;8.07;5.20;;;;;;;;;;5113900;28;20799;-78
2021/08/13 06:02:22;;;;;;;8.23;5.40;;;;;;;;;;5113483;27;20686;-78
2021/08/13 06:04:49;;;;;;;8.77;5.57;;;;;;;;;;5114117;28;20626;-77
2021/08/13 06:07:17;;;;;;;7.17;5.27;;;;;;;;;;5114312;28;20638;-78
2021/08/13 06:09:45;;;;;;;6.83;5.33;;;;;;;;;;5113896;28;20735;-78
2021/08/13 06:12:12;;;;;;;7.33;5.17;;;;;;;;;;5114030;28;20557;-78
2021/08/13 06:14:40;;;;;;;9.07;5.07;;;;;;;;;;5114727;28;20288;-78
2021/08/13 06:17:07;;;;;;;6.40;5.50;;;;;;;;;;5114184;28;20287;-77
2021/08/13 06:19:34;;;;;;;6.93;5.30;;;;;;;;;;5114140;28;20312;-78
2021/08/13 06:22:03;;;;;;;6.37;4.77;;;;;;;;;;5114287;28;20194;-78
2021/08/13 06:24:30;;;;;;;7.97;5.77;;;;;;;;;;5113778;28;20288;-78
2021/08/13 06:26:59;;;;;;;7.10;5.23;;;;;;;;;;5127026;27;20224;-78
2021/08/13 06:29:26;;;;;;;6.53;4.77;;;;;;;;;;5134403;27;20197;-78
2021/08/13 06:31:54;;;;;;;6.37;4.70;;;;;;;;;;5134264;27;20645;-78
2021/08/13 06:34:21;;;;;;;6.83;5.20;;;;;;;;;;5133894;27;20642;-78
2021/08/13 06:36:48;;;;;;;6.50;4.90;;;;;;;;;;5133567;27;20811;-78
2021/08/13 06:39:15;;;;;;;6.70;5.33;;;;;;;;;;5131848;27;20221;-78
2021/08/13 06:41:42;;;;;;;8.10;5.50;;;;;;;;;;5113514;28;20229;-77
2021/08/13 06:44:11;;;;;;;9.00;4.90;;;;;;;;;;5113450;28;20285;-77
2021/08/13 06:46:38;;;;;;;7.90;4.82;;;;;;;;;;5113294;28;20198;-77
2021/08/13 06:49:06;;;;;;;6.15;4.90;;;;;;;;;;5113432;28;20284;-77
2021/08/13 06:51:33;;;;;;;6.00;5.17;;;;;;;;;;5113023;28;20534;-77
2021/08/13 06:54:00;;;;;;;6.90;5.10;;;;;;;;;;5113063;28;20779;-77
2021/08/13 06:56:27;;;;;;;6.43;4.65;;;;;;;;;;5113199;28;20687;-77
2021/08/13 06:58:56;;;;;;;6.55;5.00;;;;;;;;;;5111809;28;20308;-77
2021/08/13 07:01:24;;;;;;;5.82;4.75;;;;;;;;;;5113115;28;20358;-77
2021/08/13 07:03:51;;;;;;;6.43;4.88;;;;;;;;;;5113285;28;20226;-78
2021/08/13 07:06:19;;;;;;;7.47;5.30;;;;;;;;;;5113223;28;20592;-77
2021/08/13 07:08:46;;;;;;;6.85;5.30;;;;;;;;;;5113091;28;20748;-77
2021/08/13 07:11:13;;;;;;;8.27;5.28;;;;;;;;;;5112960;28;20637;-78
2021/08/13 07:13:40;;;;;;;9.82;6.50;;;;;;;;;;5112105;28;20284;-78
2021/08/13 07:16:07;;;;;;;6.55;5.70;;;;;;;;;;5113261;28;20289;-78
2021/08/13 07:18:37;;;;;;;6.30;4.75;;;;;;;;;;5113320;28;20233;-77
2021/08/13 07:21:04;;;;;;;7.20;5.10;;;;;;;;;;5113185;28;20614;-77
2021/08/13 07:23:31;;;;;;;6.45;4.75;;;;;;;;;;5113053;28;20201;-78
2021/08/13 07:25:59;;;;;;;8.00;5.35;;;;;;;;;;5113113;28;20293;-77
2021/08/13 07:28:26;;;;;;;8.13;5.13;;;;;;;;;;5112663;28;20676;-77
2021/08/13 07:30:53;;;;;;;6.78;5.22;;;;;;;;;;5112834;28;20305;-78
2021/08/13 07:33:20;;;;;;;7.80;5.13;;;;;;;;;;5112804;28;20650;-77
2021/08/13 07:35:49;;;;;;;6.40;4.57;;;;;;;;;;5112699;28;20284;-78
2021/08/13 07:38:16;;;;;;;6.05;5.15;;;;;;;;;;5112604;28;20288;-77
2021/08/13 07:40:43;;;;;;;6.75;4.75;;;;;;;;;;5127271;28;20611;-77
2021/08/13 07:43:10;;;;;;;7.32;4.97;;;;;;;;;;5133786;27;20576;-77
2021/08/13 07:45:37;;;;;;;6.70;5.00;;;;;;;;;;5133119;27;20205;-77
2021/08/13 07:48:05;;;;;;;8.50;5.32;;;;;;;;;;5133357;27;20723;-78
2021/08/13 07:50:32;;;;;;;5.47;4.20;;;;;;;;;;5132945;27;20760;-78
2021/08/13 07:53:01;;;;;;;5.75;4.63;;;;;;;;;;5133656;27;20608;-78
2021/08/13 07:55:28;;;;;;;7.82;5.28;;;;;;;;;;5133200;27;20419;-77
2021/08/13 07:57:55;;;;;;;5.72;4.90;;;;;;;;;;5133159;27;20676;-77
2021/08/13 08:00:23;;;;;;;5.47;4.47;;;;;;;;;;5133364;27;20281;-78
2021/08/13 08:02:50;;;;;;;7.38;4.78;;;;;;;;;;5133235;27;20622;-78
2021/08/13 08:05:17;;;;;;;4.25;3.85;;;;;;;;;;5133049;27;20203;-78
2021/08/13 08:07:44;;;;;;;5.55;4.72;;;;;;;;;;5133226;27;20379;-78
2021/08/13 08:10:13;;;;;;;5.82;4.15;;;;;;;;;;5132976;27;20296;-78
2021/08/13 08:12:40;;;;;;;4.72;3.78;;;;;;;;;;5132903;27;20734;-78
2021/08/13 08:15:08;;;;;;;5.70;4.70;;;;;;;;;;5133023;27;20228;-78
2021/08/13 08:17:35;;;;;;;5.72;4.18;;;;;;;;;;5132976;27;20630;-78
2021/08/13 08:20:03;;;;;;;6.35;4.05;;;;;;;;;;5132347;27;20225;-78
2021/08/13 08:22:30;;;;;;;6.50;4.90;;;;;;;;;;5133045;27;20240;-78
2021/08/13 08:24:57;;;;;;;5.40;4.55;;;;;;;;;;5135056;27;20211;-78
2021/08/13 08:27:26;;;;;;;6.78;4.72;;;;;;;;;;5136995;27;20296;-78
2021/08/13 08:29:53;;;;;;;8.45;4.50;;;;;;;;;;5136783;27;20197;-78
2021/08/13 08:32:20;;;;;;;7.10;4.78;;;;;;;;;;5136533;27;20197;-78
2021/08/13 08:34:47;;;;;;;4.18;3.75;;;;;;;;;;5136373;27;20287;-78
2021/08/13 08:37:14;;;;;;;4.65;4.00;;;;;;;;;;5136970;27;20203;-78
2021/08/13 08:39:43;;;;;;;4.57;4.00;;;;;;;;;;5136664;27;20255;-78
2021/08/13 08:42:12;;;;;;;4.85;4.10;;;;;;;;;;5136316;27;20284;-78
2021/08/13 08:44:41;;;;;;;6.47;4.18;;;;;;;;;;5136257;27;20671;-78
2021/08/13 08:47:09;;;;;;;4.85;3.88;;;;;;;;;;5137137;27;20217;-78
2021/08/13 08:49:38;;;;;;;4.63;4.03;;;;;;;;;;5136019;27;20228;-78
2021/08/13 08:52:06;;;;;;;6.90;4.75;;;;;;;;;;5136169;27;20193;-78
2021/08/13 08:54:34;;;;;;;6.03;4.20;;;;;;;;;;5135638;27;20269;-78
2021/08/13 08:57:01;;;;;;;6.50;4.10;;;;;;;;;;5136245;27;20284;-78
2021/08/13 08:59:29;;;;;;;5.25;4.20;;;;;;;;;;5136514;27;20316;-78
2021/08/13 09:01:57;;;;;;;5.13;4.10;;;;;;;;;;5135895;27;20292;-78
2021/08/13 09:04:24;;;;;;;5.20;4.20;;;;;;;;;;5136194;27;20207;-78
2021/08/13 09:06:52;;;;;;;4.22;3.83;;;;;;;;;;5136243;27;20224;-78
2021/08/13 09:09:20;;;;;;;6.07;4.75;;;;;;;;;;5135909;27;20300;-78
2021/08/13 09:11:47;;;;;;;5.90;4.03;;;;;;;;;;5136114;27;20204;-78
2021/08/13 09:14:17;;;;;;;5.10;3.30;;;;;;;;;;5136171;27;20296;-78
2021/08/13 09:16:59;;;;;;;4.35;3.40;;;;;;;;;;5135401;27;20288;-78
2021/08/13 09:19:38;;;;;;;4.25;3.50;;;;;;;;;;5136162;27;20316;-78
2021/08/13 09:22:09;;;;;;;3.63;3.00;;;;;;;;;;5136115;27;20284;-78
2021/08/13 09:24:38;;;;;;;3.30;3.00;;;;;;;;;;5135669;27;20686;-79
2021/08/13 09:27:22;;;;;;;4.60;3.38;;;;;;;;;;5135815;27;20201;-79
2021/08/13 09:30:08;;;;;;;4.13;3.05;;;;;;;;;;5136197;27;20235;-79
2021/08/13 09:32:35;;;;;;;3.65;3.13;;;;;;;;;;5135444;27;20283;-79
2021/08/13 09:35:04;;;;;;;4.50;3.28;;;;;;;;;;5136146;27;20201;-79
2021/08/13 09:37:31;;;;;;;3.70;3.40;;;;;;;;;;5134414;27;20237;-79
2021/08/13 09:39:59;;;;;;;5.68;4.03;;;;;;;;;;5135070;27;20300;-79
2021/08/13 09:42:33;;;;;;;4.07;3.33;;;;;;;;;;5135699;27;20284;-79
2021/08/13 09:45:01;;;;;;;3.58;2.90;;;;;;;;;;5135680;27;20287;-79
2021/08/13 09:47:39;;;;;;;3.45;3.00;;;;;;;;;;5134967;27;20243;-79
2021/08/13 09:50:08;;;;;;;3.30;2.85;;;;;;;;;;5135449;27;20305;-79
2021/08/13 09:52:36;;;;;;;3.70;3.03;;;;;;;;;;5135182;27;20622;-79
2021/08/13 09:55:07;;;;;;;4.43;3.08;;;;;;;;;;5135278;27;20231;-79
2021/08/13 09:57:41;;;;;;;3.15;2.75;;;;;;;;;;5134760;27;20288;-79
2021/08/13 10:00:09;;;;;;;3.72;2.70;;;;;;;;;;5134637;27;20229;-78
2021/08/13 10:02:38;;;;;;;3.08;2.63;;;;;;;;;;5135271;27;20220;-79
2021/08/13 10:05:17;;;;;;;3.00;2.50;;;;;;;;;;5134988;27;20648;-79
2021/08/13 10:07:47;;;;;;;2.60;2.35;;;;;;;;;;5135178;27;20243;-79
2021/08/13 10:10:15;;;;;;;3.45;2.20;;;;;;;;;;5134723;27;20280;-79
2021/08/13 10:12:46;;;;;;;2.83;2.40;;;;;;;;;;5134704;27;20220;-79
2021/08/13 10:15:28;;;;;;;2.60;2.40;;;;;;;;;;5134754;27;20709;-79
2021/08/13 10:17:56;;;;;;;2.47;2.28;;;;;;;;;;5134941;27;20197;-79
2021/08/13 10:20:25;;;;;;;3.85;2.10;;;;;;;;;;5135349;27;20225;-79
2021/08/13 10:22:52;;;;;;;3.10;2.30;;;;;;;;;;5135127;27;20287;-79
2021/08/13 10:25:19;;;;;;;2.72;2.38;;;;;;;;;;5135185;27;20276;-79
2021/08/13 10:27:47;;;;;;;3.15;2.40;;;;;;;;;;5134248;27;20660;-79
2021/08/13 10:30:16;;;;;;;2.95;2.15;;;;;;;;;;5134009;27;20208;-79
2021/08/13 10:32:44;;;;;;;2.30;1.98;;;;;;;;;;5134918;27;20287;-79
2021/08/13 10:35:11;;;;;;;2.42;2.00;;;;;;;;;;5134614;27;20224;-79
2021/08/13 10:37:40;;;;;;;2.20;2.00;;;;;;;;;;5134490;27;20283;-79
2021/08/13 10:40:09;;;;;;;2.35;2.08;;;;;;;;;;5134052;27;20278;-79
2021/08/13 10:42:37;;;;;;;2.33;1.88;;;;;;;;;;5134433;27;20284;-78
2021/08/13 10:45:06;;;;;;;2.63;2.05;;;;;;;;;;5133604;27;20284;-79
2021/08/13 10:47:36;;;;;;;4.10;2.05;;;;;;;;;;5133807;27;20283;-79
2021/08/13 10:50:05;;;;;;;2.17;1.90;;;;;;;;;;5133859;27;20292;-79
2021/08/13 10:52:34;;;;;;;2.58;1.92;;;;;;;;;;5133967;27;20284;-79
2021/08/13 10:55:02;;;;;;;2.55;2.03;;;;;;;;;;5133941;27;20241;-79
2021/08/13 10:57:48;;;;;;;3.45;2.40;;;;;;;;;;5133545;27;20760;-79
2021/08/13 11:00:16;;;;;;;3.75;2.20;;;;;;;;;;5133868;27;20315;-79
2021/08/13 11:03:07;;;;;;;4.60;2.90;;;;;;;;;;5134038;27;20244;-79
2021/08/13 11:05:49;;;;;;;4.05;2.40;;;;;;;;;;5133475;27;20205;-79
2021/08/13 11:08:16;;;;;;;3.53;2.50;;;;;;;;;;5133664;27;20315;-79
2021/08/13 11:11:00;;;;;;;4.25;2.85;;;;;;;;;;5133634;27;20288;-79
2021/08/13 11:13:28;;;;;;;3.22;2.45;;;;;;;;;;5133186;27;20288;-79
2021/08/13 11:15:55;;;;;;;3.28;2.50;;;;;;;;;;5133348;27;20232;-79
2021/08/13 11:18:29;;;;;;;3.83;2.63;;;;;;;;;;5133682;27;20232;-79
2021/08/13 11:20:56;;;;;;;4.07;2.80;;;;;;;;;;5133362;27;20216;-79
2021/08/13 11:23:24;;;;;;;3.15;2.60;;;;;;;;;;5133891;27;20284;-79
2021/08/13 11:25:52;;;;;;;3.60;2.50;;;;;;;;;;5133611;27;20197;-79
2021/08/13 11:28:22;;;;;;;3.20;2.50;;;;;;;;;;5133317;27;20292;-79
2021/08/13 11:30:50;;;;;;;2.70;2.50;;;;;;;;;;5133181;27;20196;-79
2021/08/13 11:33:32;;;;;;;3.72;2.95;;;;;;;;;;5133090;27;20390;-79
2021/08/13 11:36:00;;;;;;;3.83;2.35;;;;;;;;;;5133374;27;20232;-79
2021/08/13 11:38:42;;;;;;;4.47;2.80;;;;;;;;;;5133536;27;20197;-79
2021/08/13 11:41:24;;;;;;;3.97;3.10;;;;;;;;;;5132653;27;20225;-79
2021/08/13 11:43:53;;;;;;;2.88;2.53;;;;;;;;;;5133353;27;20292;-79
2021/08/13 11:46:25;;;;;;;3.97;2.70;;;;;;;;;;5133409;27;20312;-79
2021/08/13 11:48:55;;;;;;;3.10;2.80;;;;;;;;;;5133180;27;20203;-79
2021/08/13 11:51:22;;;;;;;3.17;2.83;;;;;;;;;;5132895;27;20280;-79
2021/08/13 11:53:50;;;;;;;3.97;2.70;;;;;;;;;;5132745;27;20323;-79
2021/08/13 11:56:24;;;;;;;3.35;2.70;;;;;;;;;;5132751;27;20291;-79
2021/08/13 11:58:59;;;;;;;3.42;2.83;;;;;;;;;;5132969;27;20253;-79
2021/08/13 12:01:26;;;;;;;4.30;2.85;;;;;;;;;;5137177;27;20592;-79
2021/08/13 12:03:53;;;;;;;3.88;2.88;;;;;;;;;;5136815;27;20193;-79
2021/08/13 12:06:21;;;;;;;3.63;3.00;;;;;;;;;;5137294;27;20236;-79
2021/08/13 12:08:49;;;;;;;3.50;3.20;;;;;;;;;;5136704;27;20312;-79
2021/08/13 12:11:22;;;;;;;3.67;2.97;;;;;;;;;;5136404;27;20647;-79
2021/08/13 12:13:49;;;;;;;4.47;3.00;;;;;;;;;;5136902;27;20197;-79
2021/08/13 12:16:19;;;;;;;3.67;3.10;;;;;;;;;;5137005;27;20247;-79
2021/08/13 12:18:46;;;;;;;3.47;2.90;;;;;;;;;;5137058;27;20197;-79
2021/08/13 12:21:15;;;;;;;3.97;3.17;;;;;;;;;;5136919;27;20316;-80
2021/08/13 12:23:54;;;;;;;4.15;3.03;;;;;;;;;;5136776;27;20201;-79
2021/08/13 12:26:25;;;;;;;4.10;3.35;;;;;;;;;;5136591;27;20204;-79
2021/08/13 12:28:52;;;;;;;3.90;3.38;;;;;;;;;;5136431;27;20287;-79
2021/08/13 12:31:20;;;;;;;3.85;3.15;;;;;;;;;;5136719;27;20200;-79
2021/08/13 12:33:53;;;;;;;4.15;3.40;;;;;;;;;;5136846;27;20630;-79
2021/08/13 12:36:22;;;;;;;3.55;3.15;;;;;;;;;;5136417;27;20283;-79
2021/08/13 12:38:55;;;;;;;4.57;3.20;;;;;;;;;;5136378;27;20759;-79
2021/08/13 12:41:22;;;;;;;3.30;2.95;;;;;;;;;;5135606;27;20220;-79
2021/08/13 12:43:50;;;;;;;3.78;3.33;;;;;;;;;;5136410;27;20228;-79
2021/08/13 12:46:17;;;;;;;4.78;3.00;;;;;;;;;;5136112;27;20200;-79
2021/08/13 12:48:46;;;;;;;3.58;2.90;;;;;;;;;;5136548;27;20224;-79
2021/08/13 12:51:25;;;;;;;4.03;2.92;;;;;;;;;;5136088;27;20235;-79
2021/08/13 12:53:53;;;;;;;2.80;2.50;;;;;;;;;;5135406;27;20357;-79
2021/08/13 12:56:21;;;;;;;3.65;2.75;;;;;;;;;;5136012;27;20582;-79
2021/08/13 12:58:48;;;;;;;3.72;2.88;;;;;;;;;;5136231;27;20507;-79
2021/08/13 13:01:28;;;;;;;3.92;2.90;;;;;;;;;;5135919;27;20256;-79
2021/08/13 13:04:10;;;;;;;3.40;2.95;;;;;;;;;;5136451;27;20201;-79
2021/08/13 13:06:37;;;;;;;3.42;3.00;;;;;;;;;;5135622;27;20201;-79
2021/08/13 13:09:04;;;;;;;3.55;2.90;;;;;;;;;;5135553;27;20622;-79
2021/08/13 13:11:33;;;;;;;4.03;2.70;;;;;;;;;;5134492;27;20390;-79
2021/08/13 13:14:02;;;;;;;3.88;2.75;;;;;;;;;;5135370;27;20287;-79
2021/08/13 13:16:29;;;;;;;4.90;2.83;;;;;;;;;;5135847;27;20204;-79
2021/08/13 13:19:15;;;;;;;3.58;2.50;;;;;;;;;;5135615;27;20641;-79
2021/08/13 13:21:44;;;;;;;4.50;2.97;;;;;;;;;;5135807;27;20225;-79
2021/08/13 13:24:18;;;;;;;4.18;2.83;;;;;;;;;;5135079;27;20231;-79
2021/08/13 13:26:59;;;;;;;3.22;2.83;;;;;;;;;;5135733;27;20196;-79
2021/08/13 13:29:34;;;;;;;3.67;2.80;;;;;;;;;;5135627;27;20197;-78
2021/08/13 13:32:11;;;;;;;3.63;2.63;;;;;;;;;;5135693;27;20193;-79
2021/08/13 13:34:38;;;;;;;3.33;2.50;;;;;;;;;;5135399;27;20296;-79
2021/08/13 13:37:14;;;;;;;3.03;2.65;;;;;;;;;;5135172;27;20232;-79
2021/08/13 13:39:42;;;;;;;3.15;2.63;;;;;;;;;;5129351;27;20882;-79
2021/08/13 13:42:09;;;;;;;3.13;2.38;;;;;;;;;;5114438;28;20229;-79
2021/08/13 13:44:36;;;;;;;3.15;2.58;;;;;;;;;;5114445;28;20240;-79
2021/08/13 13:47:04;;;;;;;4.13;2.78;;;;;;;;;;5114271;27;20212;-79
2021/08/13 13:49:31;;;;;;;4.03;2.58;;;;;;;;;;5114515;28;20233;-79
2021/08/13 13:51:58;;;;;;;3.17;2.58;;;;;;;;;;5114203;28;20598;-79
2021/08/13 13:54:27;;;;;;;3.00;2.38;;;;;;;;;;5114191;28;20316;-79
2021/08/13 13:56:54;;;;;;;4.53;2.60;;;;;;;;;;5114501;28;20284;-79
2021/08/13 13:59:21;;;;;;;3.90;2.67;;;;;;;;;;5114327;27;20285;-79
2021/08/13 14:01:48;;;;;;;2.60;2.40;;;;;;;;;;5114441;28;20240;-79
2021/08/13 14:04:15;;;;;;;4.22;2.80;;;;;;;;;;5114309;28;20308;-79
2021/08/13 14:06:42;;;;;;;3.42;2.38;;;;;;;;;;5113792;28;20685;-79
2021/08/13 14:09:10;;;;;;;3.67;2.50;;;;;;;;;;5114055;28;20224;-79
2021/08/13 14:11:38;;;;;;;3.90;2.55;;;;;;;;;;5114160;28;20640;-79
2021/08/13 14:14:05;;;;;;;3.10;2.40;;;;;;;;;;5114013;28;20288;-78
2021/08/13 14:16:32;;;;;;;4.47;2.45;;;;;;;;;;5114386;28;20277;-79
2021/08/13 14:18:59;;;;;;;4.75;2.60;;;;;;;;;;5114258;28;20225;-78
2021/08/13 14:21:27;;;;;;;5.45;2.70;;;;;;;;;;5113418;28;20878;-79
2021/08/13 14:23:54;;;;;;;3.97;2.67;;;;;;;;;;5113316;28;20289;-78
2021/08/13 14:26:21;;;;;;;4.28;2.40;;;;;;;;;;5113749;28;20288;-79
2021/08/13 14:28:50;;;;;;;3.15;2.22;;;;;;;;;;5114007;28;20204;-79
2021/08/13 14:31:17;;;;;;;3.13;2.10;;;;;;;;;;5113490;28;20310;-79
2021/08/13 14:33:44;;;;;;;3.42;2.30;;;;;;;;;;5113677;28;20284;-79
2021/08/13 14:36:11;;;;;;;3.58;2.40;;;;;;;;;;5113114;28;20400;-79
2021/08/13 14:38:38;;;;;;;3.22;2.28;;;;;;;;;;5113307;28;20757;-78
2021/08/13 14:41:05;;;;;;;4.05;2.40;;;;;;;;;;5130960;27;20632;-79
2021/08/13 14:43:32;;;;;;;3.78;2.20;;;;;;;;;;5134286;27;20236;-78
2021/08/13 14:46:01;;;;;;;2.88;2.10;;;;;;;;;;5133973;27;20632;-79
2021/08/13 14:48:28;;;;;;;3.13;1.98;;;;;;;;;;5133659;27;20283;-79
2021/08/13 14:50:55;;;;;;;3.03;2.00;;;;;;;;;;5133480;27;20284;-79